Time;durP1;ratioP1;P1;durP2;ratioP2;P2;SDS_P1;SDS_P2;PMS_P1;PMS_P2;Temp;Humidity;BMP_temperature;BMP_pressure;BME280_temperature;BME280_humidity;BME280_pressure;Samples;Min_cycle;Max_cycle;Signal;HPM_P1;HPM_P2
2024/04/10 00:00:59;;;;;;;3.15;0.85;;;;;;;;;;5449548;26;20026;-52
2024/04/10 00:03:28;;;;;;;1.13;0.70;;;;;;;;;;5449554;26;20071;-50
2024/04/10 00:06:03;;;;;;;2.60;0.60;;;;;;;;;;5448452;26;20367;-52
2024/04/10 00:08:29;;;;;;;1.55;0.95;;;;;;;;;;5443474;26;20373;-52
2024/04/10 00:10:58;;;;;;;3.20;1.40;;;;;;;;;;5449453;26;20499;-50
2024/04/10 00:13:24;;;;;;;1.92;0.98;;;;;;;;;;5448813;26;20337;-53
2024/04/10 00:16:00;;;;;;;6.30;1.35;;;;;;;;;;5449039;26;19999;-54
2024/04/10 00:18:29;;;;;;;1.80;0.70;;;;;;;;;;5449001;26;20018;-52
2024/04/10 00:20:59;;;;;;;2.13;0.80;;;;;;;;;;5448973;26;20021;-53
2024/04/10 00:23:25;;;;;;;2.45;1.05;;;;;;;;;;5449147;26;20342;-56
2024/04/10 00:25:58;;;;;;;5.30;1.20;;;;;;;;;;5448689;26;20027;-57
2024/04/10 00:28:26;;;;;;;2.63;0.73;;;;;;;;;;5452165;26;20422;-54
2024/04/10 00:30:55;;;;;;;2.03;0.90;;;;;;;;;;5450127;26;20039;-53
2024/04/10 00:33:21;;;;;;;1.60;0.60;;;;;;;;;;5451957;26;19999;-57
2024/04/10 00:36:02;;;;;;;1.20;0.77;;;;;;;;;;5452201;26;20011;-54
2024/04/10 00:38:30;;;;;;;1.02;0.50;;;;;;;;;;5447857;26;20022;-56
2024/04/10 00:40:59;;;;;;;1.20;0.70;;;;;;;;;;5446060;26;20006;-53
2024/04/10 00:43:29;;;;;;;3.13;0.77;;;;;;;;;;5443780;26;20045;-54
2024/04/10 00:46:02;;;;;;;0.90;0.60;;;;;;;;;;5452384;26;20010;-52
2024/04/10 00:48:28;;;;;;;2.95;0.90;;;;;;;;;;5452734;26;20385;-52
2024/04/10 00:50:58;;;;;;;1.90;0.88;;;;;;;;;;5448943;26;20149;-57
2024/04/10 00:53:26;;;;;;;1.83;0.80;;;;;;;;;;5452493;26;20013;-57
2024/04/10 00:55:55;;;;;;;2.78;1.00;;;;;;;;;;5451985;26;20514;-57
2024/04/10 00:58:21;;;;;;;1.92;1.00;;;;;;;;;;5452500;26;20013;-54
2024/04/10 01:00:50;;;;;;;1.33;0.70;;;;;;;;;;5446427;26;20018;-55
2024/04/10 01:03:16;;;;;;;2.30;0.80;;;;;;;;;;5452039;26;20070;-57
2024/04/10 01:05:44;;;;;;;2.80;1.10;;;;;;;;;;5451378;26;20450;-57
2024/04/10 01:08:10;;;;;;;3.42;1.10;;;;;;;;;;5452589;26;20006;-57
2024/04/10 01:10:42;;;;;;;3.13;1.10;;;;;;;;;;5451914;26;20003;-56
2024/04/10 01:13:08;;;;;;;2.90;0.93;;;;;;;;;;5446610;26;20333;-56
2024/04/10 01:15:36;;;;;;;2.05;1.00;;;;;;;;;;5451771;26;20013;-53
2024/04/10 01:18:03;;;;;;;2.60;1.00;;;;;;;;;;5448328;26;20013;-55
2024/04/10 01:20:31;;;;;;;3.13;1.00;;;;;;;;;;5452210;26;20011;-57
2024/04/10 01:23:03;;;;;;;2.78;1.30;;;;;;;;;;5448791;26;20014;-52
2024/04/10 01:25:31;;;;;;;4.80;1.30;;;;;;;;;;5444312;26;20563;-53
2024/04/10 01:27:57;;;;;;;4.72;1.38;;;;;;;;;;5439976;26;19998;-57
2024/04/10 01:30:26;;;;;;;3.53;1.08;;;;;;;;;;5445591;26;20010;-57
2024/04/10 01:32:52;;;;;;;3.08;1.20;;;;;;;;;;5450628;26;20338;-57
2024/04/10 01:35:21;;;;;;;3.22;1.20;;;;;;;;;;5451501;26;20014;-54
2024/04/10 01:37:47;;;;;;;3.47;1.02;;;;;;;;;;5450551;26;20003;-57
2024/04/10 01:40:18;;;;;;;4.25;1.38;;;;;;;;;;5451814;26;20007;-57
2024/04/10 01:42:44;;;;;;;2.33;0.90;;;;;;;;;;5451498;26;20067;-55
2024/04/10 01:45:13;;;;;;;2.03;0.95;;;;;;;;;;5438437;26;20469;-57
2024/04/10 01:47:39;;;;;;;2.47;1.20;;;;;;;;;;5451498;26;20021;-56
2024/04/10 01:50:08;;;;;;;3.78;1.27;;;;;;;;;;5451387;26;20465;-55
2024/04/10 01:52:34;;;;;;;1.92;0.80;;;;;;;;;;5448897;26;20022;-57
2024/04/10 01:55:03;;;;;;;4.10;1.55;;;;;;;;;;5442433;26;20007;-56
2024/04/10 01:57:32;;;;;;;2.53;0.90;;;;;;;;;;5436329;26;20022;-54
2024/04/10 02:00:00;;;;;;;3.60;1.10;;;;;;;;;;5445506;26;20007;-57
2024/04/10 02:02:26;;;;;;;4.35;1.23;;;;;;;;;;5446376;26;20011;-56
2024/04/10 02:04:55;;;;;;;3.75;1.55;;;;;;;;;;5449446;26;20071;-56
2024/04/10 02:07:21;;;;;;;3.00;0.90;;;;;;;;;;5451122;26;20013;-57
2024/04/10 02:09:49;;;;;;;2.08;0.95;;;;;;;;;;5434881;26;20012;-56
2024/04/10 02:12:15;;;;;;;3.28;1.17;;;;;;;;;;5440052;26;19998;-55
2024/04/10 02:14:46;;;;;;;3.53;1.33;;;;;;;;;;5450885;26;20017;-57
2024/04/10 02:17:12;;;;;;;2.83;1.35;;;;;;;;;;5451210;26;19998;-57
2024/04/10 02:19:41;;;;;;;3.42;1.00;;;;;;;;;;5450783;26;20460;-57
2024/04/10 02:22:08;;;;;;;2.05;0.88;;;;;;;;;;5450950;26;20011;-57
2024/04/10 02:24:36;;;;;;;3.03;0.80;;;;;;;;;;5451106;26;20044;-50
2024/04/10 02:27:02;;;;;;;2.42;0.90;;;;;;;;;;5450824;26;20003;-56
2024/04/10 02:29:31;;;;;;;3.80;1.00;;;;;;;;;;5451538;26;20491;-56
2024/04/10 02:32:00;;;;;;;3.13;1.10;;;;;;;;;;5450871;26;20424;-57
2024/04/10 02:34:29;;;;;;;4.25;1.27;;;;;;;;;;5450924;26;20121;-54
2024/04/10 02:36:54;;;;;;;1.98;0.90;;;;;;;;;;5445872;26;20004;-55
2024/04/10 02:39:23;;;;;;;3.45;0.98;;;;;;;;;;5441364;26;20353;-52
2024/04/10 02:41:49;;;;;;;1.92;0.98;;;;;;;;;;5450640;26;20010;-53
2024/04/10 02:44:18;;;;;;;1.98;0.98;;;;;;;;;;5449755;26;20015;-49
2024/04/10 02:46:43;;;;;;;3.17;1.00;;;;;;;;;;5450196;26;20450;-51
2024/04/10 02:49:15;;;;;;;2.95;1.00;;;;;;;;;;5450580;26;20021;-52
2024/04/10 02:51:41;;;;;;;1.67;0.73;;;;;;;;;;5450603;26;20555;-53
2024/04/10 02:54:09;;;;;;;3.80;1.02;;;;;;;;;;5450087;26;20015;-54
2024/04/10 02:56:35;;;;;;;3.85;1.38;;;;;;;;;;5450408;26;19995;-55
2024/04/10 02:59:03;;;;;;;1.75;0.90;;;;;;;;;;5450594;26;20045;-54
2024/04/10 03:01:29;;;;;;;2.33;1.02;;;;;;;;;;5446950;26;20083;-50
2024/04/10 03:03:58;;;;;;;2.80;1.00;;;;;;;;;;5449721;26;20434;-55
2024/04/10 03:06:27;;;;;;;3.75;1.00;;;;;;;;;;5450352;26;20007;-54
2024/04/10 03:08:55;;;;;;;3.00;0.90;;;;;;;;;;5450269;26;20006;-54
2024/04/10 03:11:21;;;;;;;3.58;0.90;;;;;;;;;;5450231;26;20343;-52
2024/04/10 03:13:50;;;;;;;4.45;1.20;;;;;;;;;;5449758;26;20003;-51
2024/04/10 03:16:16;;;;;;;2.90;0.90;;;;;;;;;;5449896;26;20002;-55
2024/04/10 03:18:45;;;;;;;2.95;1.00;;;;;;;;;;5450037;26;20071;-55
2024/04/10 03:21:11;;;;;;;3.80;1.00;;;;;;;;;;5450455;26;20079;-51
2024/04/10 03:23:42;;;;;;;3.65;1.52;;;;;;;;;;5449869;26;20013;-55
2024/04/10 03:26:09;;;;;;;4.90;1.00;;;;;;;;;;5437402;26;19995;-55
2024/04/10 03:28:40;;;;;;;3.05;1.17;;;;;;;;;;5450065;26;20141;-56
2024/04/10 03:31:07;;;;;;;1.92;1.00;;;;;;;;;;5449905;26;20434;-54
2024/04/10 03:33:35;;;;;;;2.78;1.00;;;;;;;;;;5449819;26;20420;-51
2024/04/10 03:36:02;;;;;;;2.80;0.80;;;;;;;;;;5448697;26;20373;-51
2024/04/10 03:38:30;;;;;;;1.90;1.13;;;;;;;;;;5450282;26;20003;-54
2024/04/10 03:40:59;;;;;;;2.38;1.08;;;;;;;;;;5449352;26;20007;-52
2024/04/10 03:43:27;;;;;;;2.35;0.80;;;;;;;;;;5450038;26;20003;-51
2024/04/10 03:45:56;;;;;;;1.60;0.88;;;;;;;;;;5449279;26;20015;-56
2024/04/10 03:48:25;;;;;;;4.93;1.15;;;;;;;;;;5449793;26;19999;-54
2024/04/10 03:51:00;;;;;;;2.55;0.80;;;;;;;;;;5448429;26;20053;-53
2024/04/10 03:53:26;;;;;;;4.10;1.30;;;;;;;;;;5449191;26;19999;-53
2024/04/10 03:55:55;;;;;;;1.73;0.93;;;;;;;;;;5448951;26;20369;-51
2024/04/10 03:58:23;;;;;;;1.67;0.70;;;;;;;;;;5449278;26;20010;-53
2024/04/10 04:00:52;;;;;;;2.63;1.13;;;;;;;;;;5449115;26;20044;-53
2024/04/10 04:03:18;;;;;;;4.53;1.30;;;;;;;;;;5452940;26;20075;-53
2024/04/10 04:05:47;;;;;;;2.42;0.68;;;;;;;;;;5452582;26;20011;-53
2024/04/10 04:08:13;;;;;;;4.15;0.88;;;;;;;;;;5452529;26;20080;-52
2024/04/10 04:10:45;;;;;;;2.25;0.93;;;;;;;;;;5450875;26;20420;-53
2024/04/10 04:13:11;;;;;;;4.60;1.02;;;;;;;;;;5440956;26;19999;-50
2024/04/10 04:15:44;;;;;;;4.03;1.30;;;;;;;;;;5452024;26;20013;-53
2024/04/10 04:18:09;;;;;;;2.05;0.63;;;;;;;;;;5440316;26;20006;-54
2024/04/10 04:20:38;;;;;;;1.90;0.90;;;;;;;;;;5452524;26;20006;-54
2024/04/10 04:23:04;;;;;;;1.98;0.70;;;;;;;;;;5449742;26;20002;-54
2024/04/10 04:25:33;;;;;;;2.38;1.02;;;;;;;;;;5449419;26;20017;-53
2024/04/10 04:27:59;;;;;;;2.90;1.15;;;;;;;;;;5452184;26;20006;-56
2024/04/10 04:30:28;;;;;;;3.33;1.20;;;;;;;;;;5450780;26;20354;-53
2024/04/10 04:32:56;;;;;;;3.45;0.88;;;;;;;;;;5450671;26;20010;-53
2024/04/10 04:35:25;;;;;;;2.47;0.80;;;;;;;;;;5451890;26;20013;-51
2024/04/10 04:37:55;;;;;;;4.65;1.55;;;;;;;;;;5452050;26;19999;-52
2024/04/10 04:40:24;;;;;;;2.42;0.73;;;;;;;;;;5452745;26;20396;-52
2024/04/10 04:42:50;;;;;;;1.98;0.90;;;;;;;;;;5440243;26;20023;-55
2024/04/10 04:45:18;;;;;;;2.40;0.93;;;;;;;;;;5432837;26;19995;-56
2024/04/10 04:47:44;;;;;;;2.05;0.77;;;;;;;;;;5434595;26;20011;-55
2024/04/10 04:50:16;;;;;;;3.08;1.00;;;;;;;;;;5438951;26;20017;-53
2024/04/10 04:52:42;;;;;;;2.88;1.05;;;;;;;;;;5448557;26;20436;-53
2024/04/10 04:55:11;;;;;;;2.10;0.80;;;;;;;;;;5444985;26;20003;-54
2024/04/10 04:57:37;;;;;;;3.63;0.88;;;;;;;;;;5446691;26;20370;-51
2024/04/10 05:00:11;;;;;;;2.20;1.00;;;;;;;;;;5451531;26;19999;-57
2024/04/10 05:02:38;;;;;;;2.38;0.85;;;;;;;;;;5451538;26;20014;-53
2024/04/10 05:05:07;;;;;;;5.32;1.52;;;;;;;;;;5452286;26;20023;-51
2024/04/10 05:07:38;;;;;;;2.10;0.85;;;;;;;;;;5452046;26;20312;-52
2024/04/10 05:10:08;;;;;;;2.95;0.98;;;;;;;;;;5452466;26;20007;-56
2024/04/10 05:12:34;;;;;;;2.40;0.70;;;;;;;;;;5450409;26;20527;-55
2024/04/10 05:15:02;;;;;;;2.85;0.80;;;;;;;;;;5448353;26;20014;-51
2024/04/10 05:17:28;;;;;;;3.45;1.10;;;;;;;;;;5452366;26;19999;-51
2024/04/10 05:19:57;;;;;;;3.05;1.00;;;;;;;;;;5451929;26;21367;-53
2024/04/10 05:22:23;;;;;;;1.77;0.82;;;;;;;;;;5448448;26;19995;-56
2024/04/10 05:24:54;;;;;;;2.05;0.88;;;;;;;;;;5451601;26;20338;-52
2024/04/10 05:27:25;;;;;;;2.60;1.10;;;;;;;;;;5452188;26;19999;-55
2024/04/10 05:29:59;;;;;;;2.17;1.00;;;;;;;;;;5451877;26;20071;-55
2024/04/10 05:32:28;;;;;;;2.83;1.10;;;;;;;;;;5451475;26;20457;-54
2024/04/10 05:34:55;;;;;;;2.38;1.25;;;;;;;;;;5451367;26;20450;-55
2024/04/10 05:37:23;;;;;;;2.38;1.20;;;;;;;;;;5450162;26;20342;-53
2024/04/10 05:40:08;;;;;;;1.58;0.80;;;;;;;;;;5451613;26;20006;-53
2024/04/10 05:42:37;;;;;;;1.65;0.90;;;;;;;;;;5452457;26;19998;-51
2024/04/10 05:45:03;;;;;;;1.50;0.95;;;;;;;;;;5450074;26;20458;-52
2024/04/10 05:47:33;;;;;;;2.83;0.85;;;;;;;;;;5451850;26;20002;-54
2024/04/10 05:49:59;;;;;;;3.13;1.00;;;;;;;;;;5451674;26;20006;-50
2024/04/10 05:52:27;;;;;;;3.42;1.00;;;;;;;;;;5451517;26;20426;-54
2024/04/10 05:54:56;;;;;;;3.65;1.13;;;;;;;;;;5450678;26;20404;-53
2024/04/10 05:57:27;;;;;;;3.17;1.40;;;;;;;;;;5451727;26;20006;-52
2024/04/10 05:59:53;;;;;;;2.97;1.30;;;;;;;;;;5451533;26;20338;-54
2024/04/10 06:02:23;;;;;;;2.10;1.00;;;;;;;;;;5449605;26;20007;-54
2024/04/10 06:04:51;;;;;;;2.97;1.10;;;;;;;;;;5448047;26;19999;-54
2024/04/10 06:07:20;;;;;;;2.35;1.10;;;;;;;;;;5444760;26;20071;-55
2024/04/10 06:09:46;;;;;;;2.70;1.00;;;;;;;;;;5450395;26;20017;-56
2024/04/10 06:12:17;;;;;;;2.00;0.88;;;;;;;;;;5451299;26;20011;-55
2024/04/10 06:14:43;;;;;;;2.58;1.08;;;;;;;;;;5451563;26;20458;-56
2024/04/10 06:17:11;;;;;;;3.88;1.02;;;;;;;;;;5443406;26;20009;-54
2024/04/10 06:19:40;;;;;;;2.45;1.08;;;;;;;;;;5450436;26;20015;-57
2024/04/10 06:22:08;;;;;;;3.33;1.10;;;;;;;;;;5442261;26;20007;-56
2024/04/10 06:24:35;;;;;;;2.13;1.00;;;;;;;;;;5448453;26;20522;-55
2024/04/10 06:27:03;;;;;;;3.80;1.20;;;;;;;;;;5438806;26;19999;-55
2024/04/10 06:29:32;;;;;;;3.50;1.10;;;;;;;;;;5450078;26;20018;-58
2024/04/10 06:32:00;;;;;;;5.13;1.88;;;;;;;;;;5438074;26;20100;-57
2024/04/10 06:34:26;;;;;;;3.45;1.75;;;;;;;;;;5442397;26;20409;-56
2024/04/10 06:36:55;;;;;;;2.75;1.25;;;;;;;;;;5438283;26;20450;-54
2024/04/10 06:39:21;;;;;;;2.75;1.10;;;;;;;;;;5451656;26;20010;-57
2024/04/10 06:41:49;;;;;;;3.95;1.40;;;;;;;;;;5451238;26;20008;-56
2024/04/10 06:44:15;;;;;;;3.50;1.02;;;;;;;;;;5451111;26;20478;-57
2024/04/10 06:46:46;;;;;;;1.83;0.90;;;;;;;;;;5451442;26;20079;-60
2024/04/10 06:49:12;;;;;;;3.80;1.30;;;;;;;;;;5439456;26;20079;-56
2024/04/10 06:51:42;;;;;;;4.90;1.38;;;;;;;;;;5439638;26;20003;-58
2024/04/10 06:54:08;;;;;;;3.53;1.00;;;;;;;;;;5441130;26;20079;-58
2024/04/10 06:56:36;;;;;;;2.33;0.98;;;;;;;;;;5443784;26;20458;-57
2024/04/10 06:59:02;;;;;;;2.63;1.20;;;;;;;;;;5436263;26;20014;-54
2024/04/10 07:01:31;;;;;;;2.28;1.00;;;;;;;;;;5449312;26;20450;-55
2024/04/10 07:03:59;;;;;;;4.40;1.20;;;;;;;;;;5450308;26;20003;-58
2024/04/10 07:06:28;;;;;;;4.28;1.23;;;;;;;;;;5442562;26;20003;-57
2024/04/10 07:08:55;;;;;;;3.85;1.40;;;;;;;;;;5433003;26;20000;-56
2024/04/10 07:11:24;;;;;;;3.90;1.45;;;;;;;;;;5449747;26;20506;-56
2024/04/10 07:13:51;;;;;;;3.78;1.15;;;;;;;;;;5427337;26;20015;-54
2024/04/10 07:16:26;;;;;;;3.03;1.30;;;;;;;;;;5450463;26;20002;-58
2024/04/10 07:18:52;;;;;;;4.05;1.27;;;;;;;;;;5430608;26;20457;-58
2024/04/10 07:21:23;;;;;;;3.30;1.30;;;;;;;;;;5444756;26;20007;-58
2024/04/10 07:23:52;;;;;;;2.88;1.50;;;;;;;;;;5449325;26;19994;-55
2024/04/10 07:26:20;;;;;;;2.67;1.23;;;;;;;;;;5430969;26;20015;-57
2024/04/10 07:28:50;;;;;;;4.32;1.30;;;;;;;;;;5429700;26;20054;-54
2024/04/10 07:31:19;;;;;;;5.32;1.63;;;;;;;;;;5449416;26;20014;-58
2024/04/10 07:33:48;;;;;;;5.40;1.50;;;;;;;;;;5449602;26;20014;-54
2024/04/10 07:36:17;;;;;;;3.90;1.58;;;;;;;;;;5448808;26;19995;-56
2024/04/10 07:38:49;;;;;;;7.97;1.83;;;;;;;;;;5449185;26;20534;-58
2024/04/10 07:41:17;;;;;;;4.70;1.80;;;;;;;;;;5449985;26;20467;-58
2024/04/10 07:43:45;;;;;;;3.15;1.58;;;;;;;;;;5449796;26;20009;-52
2024/04/10 07:46:13;;;;;;;4.45;1.80;;;;;;;;;;5432811;26;20004;-56
2024/04/10 07:48:43;;;;;;;6.05;2.00;;;;;;;;;;5448592;26;20338;-56
2024/04/10 07:51:10;;;;;;;5.57;1.77;;;;;;;;;;5449628;26;20450;-58
2024/04/10 07:53:40;;;;;;;5.05;1.85;;;;;;;;;;5442495;26;20007;-59
2024/04/10 07:56:09;;;;;;;4.30;1.70;;;;;;;;;;5433433;26;20083;-58
2024/04/10 07:58:39;;;;;;;3.17;1.70;;;;;;;;;;5438512;26;20396;-57
2024/04/10 08:01:06;;;;;;;5.18;2.13;;;;;;;;;;5431772;26;20069;-62
2024/04/10 08:03:35;;;;;;;10.80;4.03;;;;;;;;;;5439738;26;20347;-61
2024/04/10 08:06:03;;;;;;;6.70;2.30;;;;;;;;;;5427196;26;20007;-62
2024/04/10 08:08:32;;;;;;;7.70;3.15;;;;;;;;;;5446753;26;20075;-60
2024/04/10 08:11:01;;;;;;;30.55;14.20;;;;;;;;;;5449179;26;19995;-62
2024/04/10 08:13:34;;;;;;;30.05;12.32;;;;;;;;;;5442736;26;19999;-59
2024/04/10 08:16:04;;;;;;;20.73;8.38;;;;;;;;;;5444353;26;20007;-59
2024/04/10 08:18:35;;;;;;;6.40;2.92;;;;;;;;;;5435702;26;20010;-59
2024/04/10 08:21:02;;;;;;;4.28;1.80;;;;;;;;;;5450182;26;20377;-54
2024/04/10 08:23:31;;;;;;;5.30;2.38;;;;;;;;;;5449893;26;20002;-58
2024/04/10 08:25:57;;;;;;;4.65;2.30;;;;;;;;;;5449605;26;20554;-57
2024/04/10 08:28:26;;;;;;;4.63;2.20;;;;;;;;;;5449668;26;20011;-58
2024/04/10 08:30:55;;;;;;;5.57;2.20;;;;;;;;;;5449012;26;20013;-56
2024/04/10 08:33:26;;;;;;;4.60;2.10;;;;;;;;;;5449251;26;20018;-58
2024/04/10 08:35:56;;;;;;;3.67;1.90;;;;;;;;;;5439667;26;20086;-59
2024/04/10 08:38:25;;;;;;;5.68;2.00;;;;;;;;;;5444374;26;20454;-58
2024/04/10 08:40:52;;;;;;;4.32;2.33;;;;;;;;;;5449456;26;20011;-58
2024/04/10 08:43:22;;;;;;;6.05;2.20;;;;;;;;;;5448795;26;20466;-55
2024/04/10 08:45:49;;;;;;;4.53;2.10;;;;;;;;;;5449402;26;19999;-57
2024/04/10 08:48:22;;;;;;;3.97;1.92;;;;;;;;;;5452195;26;20025;-58
2024/04/10 08:50:48;;;;;;;4.25;2.05;;;;;;;;;;5452814;26;20072;-57
2024/04/10 08:53:17;;;;;;;6.13;2.53;;;;;;;;;;5447407;26;20398;-59
2024/04/10 08:55:46;;;;;;;5.15;2.25;;;;;;;;;;5446188;26;20018;-57
2024/04/10 08:58:14;;;;;;;5.72;2.45;;;;;;;;;;5452460;26;20003;-57
2024/04/10 09:00:42;;;;;;;5.03;2.30;;;;;;;;;;5444185;26;20501;-58
2024/04/10 09:03:12;;;;;;;5.38;2.45;;;;;;;;;;5452639;26;20013;-57
2024/04/10 09:05:40;;;;;;;5.63;2.17;;;;;;;;;;5453105;26;20007;-58
2024/04/10 09:08:09;;;;;;;4.15;2.13;;;;;;;;;;5453175;26;20346;-58
2024/04/10 09:10:35;;;;;;;5.93;2.38;;;;;;;;;;5453002;26;20454;-54
2024/04/10 09:13:06;;;;;;;4.70;2.15;;;;;;;;;;5423360;26;19999;-55
2024/04/10 09:15:32;;;;;;;10.10;4.18;;;;;;;;;;5453073;26;19999;-57
2024/04/10 09:18:01;;;;;;;4.38;2.25;;;;;;;;;;5452884;26;20427;-58
2024/04/10 09:20:27;;;;;;;3.63;2.22;;;;;;;;;;5453853;26;20311;-58
2024/04/10 09:23:09;;;;;;;5.28;2.50;;;;;;;;;;5446999;26;20080;-57
2024/04/10 09:25:35;;;;;;;3.85;2.05;;;;;;;;;;5452587;26;20111;-55
2024/04/10 09:28:05;;;;;;;4.45;2.42;;;;;;;;;;5452674;26;20036;-59
2024/04/10 09:30:32;;;;;;;5.15;2.70;;;;;;;;;;5452557;26;20396;-58
2024/04/10 09:33:01;;;;;;;6.28;2.20;;;;;;;;;;5451734;26;20011;-59
2024/04/10 09:35:28;;;;;;;5.25;2.08;;;;;;;;;;5449875;26;20014;-57
2024/04/10 09:38:01;;;;;;;5.03;2.35;;;;;;;;;;5452158;26;20013;-54
2024/04/10 09:40:31;;;;;;;4.40;2.08;;;;;;;;;;5452806;26;20023;-58
2024/04/10 09:43:04;;;;;;;8.07;2.13;;;;;;;;;;5448917;26;20038;-57
2024/04/10 09:45:34;;;;;;;5.40;2.15;;;;;;;;;;5447766;26;20435;-56
2024/04/10 09:48:08;;;;;;;5.38;2.22;;;;;;;;;;5451102;26;20071;-51
2024/04/10 09:50:35;;;;;;;5.28;2.05;;;;;;;;;;5452539;26;20127;-56
2024/04/10 09:53:06;;;;;;;4.03;1.83;;;;;;;;;;5452213;26;20006;-58
2024/04/10 09:55:38;;;;;;;4.65;2.30;;;;;;;;;;5452244;26;20042;-56
2024/04/10 09:58:08;;;;;;;7.97;2.47;;;;;;;;;;5436652;26;20462;-58
2024/04/10 10:00:35;;;;;;;5.97;2.30;;;;;;;;;;5431026;26;20010;-58
2024/04/10 10:03:10;;;;;;;5.85;2.20;;;;;;;;;;5446046;26;20411;-58
2024/04/10 10:05:37;;;;;;;4.78;1.80;;;;;;;;;;5446678;26;20076;-57
2024/04/10 10:08:07;;;;;;;4.97;2.33;;;;;;;;;;5424655;26;20022;-57
2024/04/10 10:10:49;;;;;;;6.65;2.13;;;;;;;;;;5451654;26;20488;-56
2024/04/10 10:13:28;;;;;;;5.07;2.03;;;;;;;;;;5439856;26;20128;-56
2024/04/10 10:15:58;;;;;;;4.63;2.47;;;;;;;;;;5446635;26;19999;-57
2024/04/10 10:18:27;;;;;;;4.60;2.00;;;;;;;;;;5451506;26;20007;-58
2024/04/10 10:21:06;;;;;;;4.25;1.80;;;;;;;;;;5450689;26;19995;-58
2024/04/10 10:23:35;;;;;;;5.65;1.63;;;;;;;;;;5446732;26;20003;-56
2024/04/10 10:26:05;;;;;;;7.05;1.95;;;;;;;;;;5451565;26;20021;-58
2024/04/10 10:28:35;;;;;;;5.53;1.70;;;;;;;;;;5447381;26;20526;-59
2024/04/10 10:31:08;;;;;;;5.18;2.13;;;;;;;;;;5448815;26;19995;-55
2024/04/10 10:33:40;;;;;;;4.55;1.85;;;;;;;;;;5427221;26;19998;-57
2024/04/10 10:36:07;;;;;;;3.50;1.80;;;;;;;;;;5449736;26;20009;-58
2024/04/10 10:38:36;;;;;;;4.22;1.95;;;;;;;;;;5452186;26;20006;-57
2024/04/10 10:41:09;;;;;;;3.50;1.95;;;;;;;;;;5438015;26;20101;-56
2024/04/10 10:43:38;;;;;;;4.07;1.20;;;;;;;;;;5451493;26;20003;-59
2024/04/10 10:46:05;;;;;;;5.70;1.60;;;;;;;;;;5451616;26;19999;-58
2024/04/10 10:48:34;;;;;;;4.18;1.20;;;;;;;;;;5451821;26;19998;-59
2024/04/10 10:51:00;;;;;;;2.75;1.42;;;;;;;;;;5451356;26;20013;-58
2024/04/10 10:53:29;;;;;;;4.57;1.90;;;;;;;;;;5451039;26;20083;-59
2024/04/10 10:55:57;;;;;;;4.43;1.65;;;;;;;;;;5446490;26;20013;-57
2024/04/10 10:58:29;;;;;;;3.47;1.63;;;;;;;;;;5450874;26;20006;-56
2024/04/10 11:00:55;;;;;;;4.85;2.40;;;;;;;;;;5436632;26;20575;-58
2024/04/10 11:03:25;;;;;;;4.15;2.00;;;;;;;;;;5449756;26;20003;-59
2024/04/10 11:05:51;;;;;;;5.05;1.80;;;;;;;;;;5445559;26;20518;-57
2024/04/10 11:08:24;;;;;;;4.18;1.90;;;;;;;;;;5442559;26;20044;-58
2024/04/10 11:10:50;;;;;;;5.18;1.90;;;;;;;;;;5449767;26;20017;-57
2024/04/10 11:13:19;;;;;;;7.35;1.98;;;;;;;;;;5450837;26;19998;-60
2024/04/10 11:15:49;;;;;;;4.20;2.05;;;;;;;;;;5449039;26;20010;-57
2024/04/10 11:18:18;;;;;;;4.47;2.00;;;;;;;;;;5451038;26;20092;-55
2024/04/10 11:20:44;;;;;;;3.65;1.38;;;;;;;;;;5451377;26;20042;-52
2024/04/10 11:23:13;;;;;;;4.53;1.48;;;;;;;;;;5441012;26;20003;-58
2024/04/10 11:25:39;;;;;;;8.40;2.22;;;;;;;;;;5449206;26;19995;-56
2024/04/10 11:28:08;;;;;;;5.80;1.70;;;;;;;;;;5439877;26;20011;-57
2024/04/10 11:30:34;;;;;;;3.03;1.35;;;;;;;;;;5451064;26;20370;-58
2024/04/10 11:34:44;;;;;;;4.05;1.63;;;;;;;;;;5563543;25;20347;-58
2024/04/10 11:37:10;;;;;;;4.03;1.55;;;;;;;;;;5543243;25;20008;-54
2024/04/10 11:39:39;;;;;;;4.70;2.05;;;;;;;;;;5542271;25;20461;-57
2024/04/10 11:42:05;;;;;;;3.65;1.20;;;;;;;;;;5543372;25;19998;-59
2024/04/10 11:44:34;;;;;;;3.97;1.30;;;;;;;;;;5507155;25;20176;-57
2024/04/10 11:47:00;;;;;;;4.22;1.60;;;;;;;;;;5506550;25;20059;-58
2024/04/10 11:49:28;;;;;;;3.95;1.48;;;;;;;;;;5505863;25;20048;-58
2024/04/10 11:51:57;;;;;;;3.28;1.75;;;;;;;;;;5506366;25;19998;-58
2024/04/10 11:54:25;;;;;;;5.18;1.90;;;;;;;;;;5505857;25;20472;-59
2024/04/10 11:56:51;;;;;;;4.72;1.75;;;;;;;;;;5505635;25;19998;-59
2024/04/10 11:59:19;;;;;;;3.90;1.58;;;;;;;;;;5505191;25;20315;-59
2024/04/10 12:01:45;;;;;;;4.63;1.80;;;;;;;;;;5505847;25;20468;-55
2024/04/10 12:04:14;;;;;;;4.60;1.90;;;;;;;;;;5505707;25;20010;-58
2024/04/10 12:06:40;;;;;;;4.50;1.40;;;;;;;;;;5505518;26;20014;-56
2024/04/10 12:09:11;;;;;;;3.25;1.67;;;;;;;;;;5502263;25;20002;-58
2024/04/10 12:11:37;;;;;;;3.33;1.60;;;;;;;;;;5495989;26;20094;-57
2024/04/10 12:14:06;;;;;;;4.10;1.30;;;;;;;;;;5505939;25;20009;-57
2024/04/10 12:16:31;;;;;;;4.47;1.60;;;;;;;;;;5505684;26;19997;-58
2024/04/10 12:19:00;;;;;;;3.78;1.77;;;;;;;;;;5505791;25;20472;-56
2024/04/10 12:21:26;;;;;;;5.50;1.50;;;;;;;;;;5505788;25;20016;-55
2024/04/10 12:23:54;;;;;;;4.30;1.60;;;;;;;;;;5504987;25;20014;-55
2024/04/10 12:26:23;;;;;;;4.47;1.67;;;;;;;;;;5504909;26;20014;-57
2024/04/10 12:28:51;;;;;;;4.53;1.70;;;;;;;;;;5485484;25;20355;-56
2024/04/10 12:31:17;;;;;;;5.75;2.22;;;;;;;;;;5492212;26;20018;-55
2024/04/10 12:33:46;;;;;;;5.35;2.20;;;;;;;;;;5468659;26;20021;-58
2024/04/10 12:38:59;;;;;;;3.35;1.80;;;;;;;;;;5498302;26;20017;-57
2024/04/10 12:41:30;;;;;;;4.53;1.85;;;;;;;;;;5498078;25;20445;-57
2024/04/10 12:44:00;;;;;;;4.18;1.88;;;;;;;;;;5501384;25;19998;-58
2024/04/10 12:46:31;;;;;;;4.88;1.67;;;;;;;;;;5489541;26;20403;-58
2024/04/10 12:48:57;;;;;;;5.20;1.83;;;;;;;;;;5489121;26;20335;-56
2024/04/10 12:51:25;;;;;;;7.53;1.80;;;;;;;;;;5481512;26;20111;-56
2024/04/10 12:53:51;;;;;;;3.55;1.77;;;;;;;;;;5481203;26;20083;-56
2024/04/10 12:56:20;;;;;;;3.60;1.50;;;;;;;;;;5490000;26;20006;-57
2024/04/10 12:58:49;;;;;;;3.70;1.67;;;;;;;;;;5491907;26;19998;-56
2024/04/10 13:01:17;;;;;;;3.53;1.50;;;;;;;;;;5490021;26;19998;-58
2024/04/10 13:03:43;;;;;;;4.10;1.90;;;;;;;;;;5489144;26;20009;-57
2024/04/10 13:06:11;;;;;;;4.35;1.75;;;;;;;;;;5489353;26;20014;-57
2024/04/10 13:08:37;;;;;;;3.65;1.55;;;;;;;;;;5489853;26;19998;-55
2024/04/10 13:11:10;;;;;;;4.18;1.67;;;;;;;;;;5489400;26;20013;-58
2024/04/10 13:13:36;;;;;;;5.00;1.92;;;;;;;;;;5489171;26;20017;-54
2024/04/10 13:16:09;;;;;;;4.28;1.65;;;;;;;;;;5489450;26;20002;-56
2024/04/10 13:18:37;;;;;;;3.65;1.67;;;;;;;;;;5489315;26;20435;-59
2024/04/10 13:21:07;;;;;;;3.47;1.75;;;;;;;;;;5485509;26;20066;-59
2024/04/10 13:23:34;;;;;;;5.40;2.10;;;;;;;;;;5489189;26;20074;-58
2024/04/10 13:26:04;;;;;;;4.30;1.80;;;;;;;;;;5480588;26;20465;-57
2024/04/10 13:28:30;;;;;;;3.20;1.77;;;;;;;;;;5479022;26;20013;-57
2024/04/10 13:31:15;;;;;;;6.60;2.38;;;;;;;;;;5488643;26;20006;-58
2024/04/10 13:33:42;;;;;;;5.35;1.98;;;;;;;;;;5488068;26;20074;-57
2024/04/10 13:36:13;;;;;;;3.22;1.55;;;;;;;;;;5489016;26;20013;-58
2024/04/10 13:38:42;;;;;;;4.47;1.40;;;;;;;;;;5488469;26;20002;-59
2024/04/10 13:41:11;;;;;;;2.72;1.52;;;;;;;;;;5481545;26;20010;-59
2024/04/10 13:43:38;;;;;;;3.35;1.73;;;;;;;;;;5467090;26;20070;-58
2024/04/10 13:46:09;;;;;;;3.55;1.65;;;;;;;;;;5488793;26;20082;-57
2024/04/10 13:48:38;;;;;;;;;;;;;;;;;;5489595;26;19998;-59
2024/04/10 13:51:07;;;;;;;4.57;1.58;;;;;;;;;;5485526;26;19992;-58
2024/04/10 13:53:33;;;;;;;6.88;2.05;;;;;;;;;;5477542;26;20034;-56
2024/04/10 13:56:06;;;;;;;3.88;2.00;;;;;;;;;;5488335;26;20002;-57
2024/04/10 13:58:32;;;;;;;4.80;1.85;;;;;;;;;;5499867;26;20012;-58
2024/04/10 14:01:01;;;;;;;4.78;1.88;;;;;;;;;;5495660;26;20010;-58
2024/04/10 14:03:27;;;;;;;5.40;2.10;;;;;;;;;;5488031;26;20076;-57
2024/04/10 14:06:04;;;;;;;3.30;1.65;;;;;;;;;;5488475;26;20010;-58
2024/04/10 14:08:30;;;;;;;5.72;2.63;;;;;;;;;;5482163;26;20453;-57
2024/04/10 14:11:00;;;;;;;3.25;1.60;;;;;;;;;;5501606;26;20025;-58
2024/04/10 14:13:27;;;;;;;4.40;1.88;;;;;;;;;;5487802;26;19994;-56
2024/04/10 14:15:55;;;;;;;4.35;1.80;;;;;;;;;;5477281;26;20002;-58
2024/04/10 14:18:21;;;;;;;3.42;1.40;;;;;;;;;;5487810;26;19994;-58
2024/04/10 14:20:50;;;;;;;4.90;1.70;;;;;;;;;;5488234;26;20010;-58
2024/04/10 14:23:19;;;;;;;3.88;1.73;;;;;;;;;;5473915;26;20229;-58
2024/04/10 14:25:48;;;;;;;5.30;1.83;;;;;;;;;;5481242;26;20017;-59
2024/04/10 14:28:14;;;;;;;5.88;1.80;;;;;;;;;;5480503;26;20035;-58
2024/04/10 14:30:43;;;;;;;5.40;2.40;;;;;;;;;;5487453;26;20403;-59
2024/04/10 14:33:10;;;;;;;3.85;2.00;;;;;;;;;;5481823;26;19998;-59
2024/04/10 14:35:48;;;;;;;3.38;1.45;;;;;;;;;;5487891;26;20463;-57
2024/04/10 14:38:14;;;;;;;4.15;1.58;;;;;;;;;;5477493;26;19998;-59
2024/04/10 14:40:45;;;;;;;4.35;1.70;;;;;;;;;;5487656;26;20010;-55
2024/04/10 14:43:11;;;;;;;5.78;2.38;;;;;;;;;;5487533;26;20009;-58
2024/04/10 14:45:39;;;;;;;4.28;1.85;;;;;;;;;;5472693;26;20002;-56
2024/04/10 14:48:06;;;;;;;5.28;1.80;;;;;;;;;;5487055;26;20464;-60
2024/04/10 14:50:35;;;;;;;5.72;2.10;;;;;;;;;;5487971;26;20005;-60
2024/04/10 14:53:00;;;;;;;4.57;1.83;;;;;;;;;;5479082;26;20450;-58
2024/04/10 14:55:29;;;;;;;6.05;1.75;;;;;;;;;;5497787;26;20002;-56